Time;durP1;ratioP1;P1;durP2;ratioP2;P2;SDS_P1;SDS_P2;PMS_P1;PMS_P2;Temp;Humidity;BMP_temperature;BMP_pressure;BME280_temperature;BME280_humidity;BME280_pressure;Samples;Min_cycle;Max_cycle;Signal;HPM_P1;HPM_P2
2021/06/15 00:01:22;;;;;;;11.35;6.10;;;;;;;17.00;78.01;99406.59;130012;1092;22578;-66
2021/06/15 00:03:50;;;;;;;9.18;5.63;;;;;;;17.07;78.40;99414.44;130098;1092;23273;-66
2021/06/15 00:06:19;;;;;;;10.33;6.13;;;;;;;17.12;78.60;99409.67;129937;1093;113039;-67
2021/06/15 00:08:47;;;;;;;9.60;5.48;;;;;;;17.21;78.80;99415.27;130084;1093;22652;-65
2021/06/15 00:11:16;;;;;;;7.73;4.88;;;;;;;17.27;78.98;99414.89;129966;1093;114094;-67
2021/06/15 00:13:44;;;;;;;9.90;5.33;;;;;;;17.35;78.25;99409.78;130089;1092;22568;-66
2021/06/15 00:16:12;;;;;;;6.58;4.15;;;;;;;17.39;78.07;99413.56;129963;1093;114786;-66
2021/06/15 00:18:41;;;;;;;7.55;5.20;;;;;;;17.41;78.23;99406.63;130079;1093;23558;-66
2021/06/15 00:21:10;;;;;;;9.20;5.23;;;;;;;17.42;77.60;99404.70;130086;1093;22573;-67
2021/06/15 00:23:38;;;;;;;8.38;4.88;;;;;;;17.41;77.45;99409.39;129940;1093;113760;-66
2021/06/15 00:26:06;;;;;;;6.50;4.98;;;;;;;17.39;77.27;99406.12;130118;1093;22568;-66
2021/06/15 00:28:36;;;;;;;8.93;5.40;;;;;;;17.36;77.08;99403.16;129900;1092;114315;-66
2021/06/15 00:31:05;;;;;;;11.40;5.50;;;;;;;17.33;77.31;99399.88;130077;1092;23157;-66
2021/06/15 00:33:33;;;;;;;15.85;5.93;;;;;;;17.30;77.13;99417.04;130086;1092;22550;-66
2021/06/15 00:36:02;;;;;;;6.97;5.90;;;;;;;17.25;76.76;99408.86;129965;1093;115087;-66
2021/06/15 00:38:30;;;;;;;7.18;5.33;;;;;;;17.19;77.05;99412.82;130050;1093;22568;-66
2021/06/15 00:40:59;;;;;;;11.95;5.55;;;;;;;17.15;77.13;99405.50;129900;1093;114378;-66
2021/06/15 00:43:28;;;;;;;9.43;5.18;;;;;;;17.10;77.21;99403.64;129791;1093;22585;-67
2021/06/15 00:45:56;;;;;;;9.55;5.13;;;;;;;17.05;77.24;99398.22;129896;1093;23834;-66
2021/06/15 00:48:31;;;;;;;7.95;5.08;;;;;;;17.01;77.24;99394.47;129977;1093;113710;-66
2021/06/15 00:51:01;;;;;;;10.10;5.40;;;;;;;16.95;77.30;99390.98;129844;1092;22578;-66
2021/06/15 00:53:30;;;;;;;8.35;4.78;;;;;;;16.91;77.23;99391.88;129884;1093;114432;-66
2021/06/15 00:55:58;;;;;;;8.88;4.98;;;;;;;16.87;77.29;99393.63;128588;1092;22816;-65
2021/06/15 00:58:27;;;;;;;6.98;5.08;;;;;;;16.82;76.98;99388.20;129956;1093;114040;-66
2021/06/15 01:00:56;;;;;;;6.13;5.33;;;;;;;16.78;77.41;99387.98;129894;1093;22576;-66
2021/06/15 01:03:26;;;;;;;8.85;5.55;;;;;;;16.75;77.56;99391.33;129837;1091;22626;-66
2021/06/15 01:05:55;;;;;;;6.75;5.40;;;;;;;16.74;77.76;99391.63;129734;1092;113805;-66
2021/06/15 01:08:44;;;;;;;15.45;6.68;;;;;;;16.75;78.38;99387.76;129788;1092;23299;-66
2021/06/15 01:11:25;;;;;;;7.68;4.90;;;;;;;16.76;78.22;99397.65;129786;1093;113974;-66
2021/06/15 01:14:16;;;;;;;9.68;5.20;;;;;;;16.74;78.22;99383.38;129777;1093;22649;-66
2021/06/15 01:17:04;;;;;;;6.50;5.58;;;;;;;16.72;78.13;99380.95;129693;1093;114399;-66
2021/06/15 01:19:57;;;;;;;6.40;5.40;;;;;;;16.69;77.96;99389.80;129751;1092;22632;-66
2021/06/15 01:22:33;;;;;;;8.83;5.70;;;;;;;16.66;77.91;99384.89;129679;1093;113999;-66
2021/06/15 01:25:07;;;;;;;8.68;5.38;;;;;;;16.63;78.14;99390.17;129777;1093;22552;-66
2021/06/15 01:27:47;;;;;;;8.40;5.33;;;;;;;16.61;78.26;99393.19;129792;1092;22696;-66
2021/06/15 01:30:16;;;;;;;14.00;6.05;;;;;;;16.57;78.37;99387.50;129651;1093;113703;-66
2021/06/15 01:32:56;;;;;;;9.05;5.28;;;;;;;16.54;78.06;99387.27;129785;1093;22518;-66
2021/06/15 01:35:25;;;;;;;8.85;5.75;;;;;;;16.53;78.05;99391.14;129671;1093;114852;-66
2021/06/15 01:38:00;;;;;;;6.95;5.95;;;;;;;16.50;78.08;99384.30;129817;1092;22609;-66
2021/06/15 01:40:41;;;;;;;7.15;6.13;;;;;;;16.47;78.01;99398.64;129625;1093;113997;-66
2021/06/15 01:43:30;;;;;;;10.33;6.05;;;;;;;16.44;78.29;99395.70;129803;1093;22531;-67
2021/06/15 01:45:59;;;;;;;6.55;5.55;;;;;;;16.40;78.49;99398.22;129998;1093;22581;-66
2021/06/15 01:48:35;;;;;;;8.00;6.00;;;;;;;16.38;78.49;99389.45;129749;1093;113737;-67
2021/06/15 01:51:04;;;;;;;8.10;5.70;;;;;;;16.35;78.61;99392.80;129784;1092;23774;-66
2021/06/15 01:53:35;;;;;;;7.05;5.80;;;;;;;16.35;78.69;99395.55;129741;1093;113984;-66
2021/06/15 01:56:04;;;;;;;8.05;6.13;;;;;;;16.34;78.69;99401.34;129843;1093;22716;-66
2021/06/15 01:58:36;;;;;;;9.40;6.93;;;;;;;16.31;78.75;99393.68;129993;1092;113989;-66
2021/06/15 02:01:05;;;;;;;8.90;5.93;;;;;;;16.28;78.98;99394.30;130047;1093;22560;-66
2021/06/15 02:03:37;;;;;;;10.28;6.38;;;;;;;16.24;78.82;99391.33;129862;1093;22585;-66
2021/06/15 02:06:10;;;;;;;8.30;7.35;;;;;;;16.23;78.91;99397.94;129716;1092;113992;-66
2021/06/15 02:08:41;;;;;;;13.55;7.45;;;;;;;16.21;79.22;99400.16;129843;1092;22588;-66
2021/06/15 02:11:27;;;;;;;10.88;6.95;;;;;;;16.21;79.26;99400.16;129764;1093;115172;-66
2021/06/15 02:14:34;;;;;;;9.93;7.05;;;;;;;16.21;79.84;99400.98;129590;1093;23420;-65
2021/06/15 02:17:30;;;;;;;9.13;7.00;;;;;;;16.21;79.76;99400.98;129762;1093;113620;-66
2021/06/15 02:20:22;;;;;;;9.95;7.23;;;;;;;16.21;79.73;99400.16;129806;1093;22555;-65
2021/06/15 02:22:53;;;;;;;9.53;7.15;;;;;;;16.21;79.94;99400.16;129683;1093;114414;-66
2021/06/15 02:25:28;;;;;;;8.10;6.90;;;;;;;16.23;80.00;99403.44;129899;1093;22554;-66
2021/06/15 02:27:57;;;;;;;9.45;7.60;;;;;;;16.23;80.03;99412.50;129832;1093;22578;-66
2021/06/15 02:30:27;;;;;;;10.40;6.85;;;;;;;16.26;80.35;99411.91;129776;1093;113824;-65
2021/06/15 02:33:10;;;;;;;7.90;6.93;;;;;;;16.32;81.21;99401.63;129863;1092;23370;-66
2021/06/15 02:35:41;;;;;;;7.60;6.90;;;;;;;16.44;81.76;99402.02;129766;1092;113812;-66
2021/06/15 02:38:13;;;;;;;9.53;7.50;;;;;;;16.56;82.04;99396.05;129776;1092;22573;-66
2021/06/15 02:40:42;;;;;;;7.28;6.50;;;;;;;16.69;82.17;99405.48;129773;1093;113963;-64
2021/06/15 02:43:11;;;;;;;9.05;6.78;;;;;;;16.78;81.94;99415.50;129822;1092;22577;-65
2021/06/15 02:45:42;;;;;;;9.78;6.73;;;;;;;16.88;81.86;99415.31;129822;1093;22564;-65
2021/06/15 02:48:10;;;;;;;8.70;6.73;;;;;;;16.98;81.86;99414.34;129744;1092;115000;-66
2021/06/15 02:50:46;;;;;;;9.08;6.00;;;;;;;17.08;81.67;99413.32;129866;1092;22526;-66
2021/06/15 02:53:40;;;;;;;7.55;6.85;;;;;;;17.17;81.50;99415.06;129708;1092;113761;-66
2021/06/15 02:56:11;;;;;;;11.98;7.13;;;;;;;17.30;81.80;99416.22;129845;1092;23431;-65
2021/06/15 02:58:41;;;;;;;8.10;7.30;;;;;;;17.40;81.71;99407.75;129721;1093;114246;-64
2021/06/15 03:01:10;;;;;;;9.98;6.98;;;;;;;17.52;81.56;99405.30;129872;1093;22578;-64
2021/06/15 03:03:45;;;;;;;9.23;7.00;;;;;;;17.61;81.63;99403.45;130006;1093;22558;-64
2021/06/15 03:06:13;;;;;;;7.93;6.20;;;;;;;17.72;81.45;99404.11;129990;1093;114465;-66
2021/06/15 03:08:43;;;;;;;7.60;6.70;;;;;;;17.83;81.55;99401.94;129847;1092;22569;-67
2021/06/15 03:11:15;;;;;;;9.58;6.83;;;;;;;17.94;81.19;99412.42;129776;1092;114239;-66
2021/06/15 03:13:53;;;;;;;7.95;7.15;;;;;;;18.05;81.26;99403.92;129837;1093;22667;-66
2021/06/15 03:16:23;;;;;;;7.60;6.83;;;;;;;18.19;81.00;99407.46;129661;1093;113959;-65
2021/06/15 03:19:15;;;;;;;8.08;7.30;;;;;;;18.31;80.68;99407.75;129711;1092;23557;-66
2021/06/15 03:21:47;;;;;;;8.05;7.25;;;;;;;18.44;80.61;99412.41;129754;1092;22609;-66
2021/06/15 03:24:21;;;;;;;8.78;7.78;;;;;;;18.56;80.03;99406.32;129609;1093;113966;-66
2021/06/15 03:26:58;;;;;;;7.83;6.83;;;;;;;18.64;79.81;99406.40;129743;1093;22588;-66
2021/06/15 03:29:32;;;;;;;7.73;6.95;;;;;;;18.74;79.66;99404.53;129628;1093;113942;-66
2021/06/15 03:32:05;;;;;;;8.75;7.40;;;;;;;18.83;79.17;99416.44;129785;1093;23047;-66
2021/06/15 03:34:36;;;;;;;8.88;7.10;;;;;;;18.91;78.89;99422.00;129595;1093;114087;-66
2021/06/15 03:37:05;;;;;;;10.53;7.63;;;;;;;18.98;78.92;99414.10;129731;1093;22562;-66
2021/06/15 03:39:35;;;;;;;8.03;7.23;;;;;;;19.05;78.39;99417.21;129718;1093;22626;-66
2021/06/15 03:42:04;;;;;;;12.55;7.73;;;;;;;19.14;78.09;99416.46;129647;1093;113768;-66
2021/06/15 03:44:32;;;;;;;12.93;7.83;;;;;;;19.22;77.93;99423.96;129715;1093;22588;-67
2021/06/15 03:47:01;;;;;;;8.38;7.48;;;;;;;19.28;77.66;99415.23;129726;1093;115818;-66
2021/06/15 03:49:30;;;;;;;8.53;7.48;;;;;;;19.33;77.19;99412.31;129844;1092;22579;-66
2021/06/15 03:52:00;;;;;;;12.13;7.80;;;;;;;19.42;76.95;99415.95;129873;1093;22861;-66
2021/06/15 03:54:29;;;;;;;9.78;8.10;;;;;;;19.51;76.99;99424.29;130009;1093;113646;-66
2021/06/15 03:56:58;;;;;;;15.25;7.95;;;;;;;19.59;76.97;99419.94;129828;1092;22545;-66
2021/06/15 03:59:30;;;;;;;10.63;7.53;;;;;;;19.66;76.40;99411.98;129990;1093;114309;-66
2021/06/15 04:02:00;;;;;;;8.25;7.23;;;;;;;19.72;75.71;99421.77;130000;1092;22557;-66
2021/06/15 04:04:30;;;;;;;8.40;7.20;;;;;;;19.81;75.64;99419.02;129735;1092;113944;-65
2021/06/15 04:06:58;;;;;;;8.63;7.75;;;;;;;19.88;75.22;99416.61;130070;1093;22622;-66
2021/06/15 04:09:28;;;;;;;9.25;6.75;;;;;;;19.95;74.90;99428.81;129888;1093;22535;-66
2021/06/15 04:11:59;;;;;;;7.28;6.23;;;;;;;20.03;74.18;99424.45;129730;1093;114054;-66
2021/06/15 04:14:28;;;;;;;8.25;6.03;;;;;;;20.11;73.95;99424.45;129860;1092;22598;-66
2021/06/15 04:16:56;;;;;;;9.50;6.08;;;;;;;20.20;73.04;99429.98;129735;1093;115216;-66
2021/06/15 04:19:32;;;;;;;6.58;5.88;;;;;;;20.29;73.22;99432.78;129867;1093;22564;-66
2021/06/15 04:22:01;;;;;;;8.65;6.03;;;;;;;20.36;72.74;99428.41;129842;1092;22609;-65
2021/06/15 04:24:29;;;;;;;10.88;6.60;;;;;;;20.45;72.93;99426.47;129732;1092;113607;-66
2021/06/15 04:26:59;;;;;;;11.78;5.83;;;;;;;20.54;72.16;99429.23;129811;1092;22570;-66
2021/06/15 04:29:27;;;;;;;7.83;5.95;;;;;;;20.61;71.16;99424.03;129790;1092;113935;-66
2021/06/15 04:31:59;;;;;;;8.65;5.73;;;;;;;20.66;70.83;99421.07;130081;1093;23374;-64
2021/06/15 04:34:27;;;;;;;10.30;5.83;;;;;;;20.72;69.85;99425.31;129761;1093;114213;-64
2021/06/15 04:37:00;;;;;;;7.85;5.40;;;;;;;20.78;69.91;99423.98;129849;1093;24284;-64
2021/06/15 04:39:33;;;;;;;6.15;5.50;;;;;;;20.83;69.26;99420.24;130145;1092;22549;-64
2021/06/15 04:42:06;;;;;;;6.48;5.63;;;;;;;20.88;69.08;99422.84;129729;1092;113949;-64
2021/06/15 04:44:40;;;;;;;7.93;5.30;;;;;;;20.93;68.56;99419.89;130082;1092;22640;-64
2021/06/15 04:47:23;;;;;;;4.98;4.48;;;;;;;20.99;68.22;99423.31;130000;1093;113751;-66
2021/06/15 04:50:10;;;;;;;9.93;4.93;;;;;;;21.05;67.41;99419.23;129867;1093;23445;-66
2021/06/15 04:52:38;;;;;;;6.38;5.08;;;;;;;21.09;66.59;99415.45;129713;1093;114016;-66
2021/06/15 04:55:07;;;;;;;9.03;4.60;;;;;;;21.14;66.66;99425.55;129830;1093;22517;-65
2021/06/15 04:57:43;;;;;;;8.70;5.50;;;;;;;21.18;66.30;99416.27;129822;1093;23316;-64
2021/06/15 05:00:12;;;;;;;9.35;5.30;;;;;;;21.25;66.52;99420.50;129773;1093;113896;-64
2021/06/15 05:02:40;;;;;;;8.23;5.53;;;;;;;21.30;65.86;99406.47;129803;1092;23598;-64
2021/06/15 05:05:12;;;;;;;6.75;5.43;;;;;;;21.38;66.14;99416.69;129748;1093;115327;-64
2021/06/15 05:07:41;;;;;;;5.80;5.00;;;;;;;21.45;65.68;99423.36;129802;1093;22547;-65
2021/06/15 05:10:09;;;;;;;6.38;4.80;;;;;;;21.52;65.50;99420.06;129755;1093;114314;-65
2021/06/15 05:12:43;;;;;;;13.18;5.55;;;;;;;21.66;65.22;99420.64;129854;1093;22701;-65
2021/06/15 05:15:12;;;;;;;6.43;4.45;;;;;;;21.82;64.71;99424.48;130012;1093;22529;-63
2021/06/15 05:17:44;;;;;;;9.60;4.50;;;;;;;21.99;63.96;99425.53;130012;1093;114057;-65
2021/06/15 05:20:13;;;;;;;5.73;4.20;;;;;;;22.17;63.01;99418.75;129810;1093;22600;-65
2021/06/15 05:22:47;;;;;;;10.50;4.88;;;;;;;22.38;62.80;99421.52;129963;1093;114142;-65
2021/06/15 05:25:19;;;;;;;5.28;4.53;;;;;;;22.58;62.33;99420.70;129844;1093;22564;-65
2021/06/15 05:27:47;;;;;;;8.18;5.10;;;;;;;22.76;61.92;99421.38;130104;1092;22622;-65
2021/06/15 05:30:16;;;;;;;8.50;4.88;;;;;;;22.95;61.06;99420.88;129962;1093;113893;-65
2021/06/15 05:32:44;;;;;;;6.03;4.20;;;;;;;23.14;60.68;99423.95;130135;1093;22527;-65
2021/06/15 05:35:12;;;;;;;5.13;4.35;;;;;;;23.28;60.03;99424.44;129953;1092;113814;-65
2021/06/15 05:37:41;;;;;;;5.53;4.15;;;;;;;23.40;59.38;99420.86;129854;1092;23060;-65
2021/06/15 05:40:11;;;;;;;5.08;4.48;;;;;;;23.49;59.21;99419.62;129952;1092;114814;-65
2021/06/15 05:42:39;;;;;;;6.53;4.75;;;;;;;23.58;59.30;99430.66;130101;1092;22693;-65
2021/06/15 05:45:09;;;;;;;7.98;4.35;;;;;;;23.64;58.49;99422.91;130030;1093;23095;-65
2021/06/15 05:47:37;;;;;;;7.27;4.17;;;;;;;23.66;58.34;99435.28;129808;1093;113780;-65
2021/06/15 05:50:06;;;;;;;4.90;4.20;;;;;;;23.61;58.70;99429.97;130088;1093;22637;-66
2021/06/15 05:52:35;;;;;;;6.18;4.95;;;;;;;23.55;58.78;99432.15;129983;1093;113950;-65
2021/06/15 05:55:04;;;;;;;5.88;5.18;;;;;;;23.50;59.28;99429.59;130077;1093;22568;-65
2021/06/15 05:57:40;;;;;;;8.85;5.30;;;;;;;23.44;59.16;99427.36;127086;1092;27310;-65
2021/06/15 06:00:09;;;;;;;6.68;4.40;;;;;;;23.44;58.55;99427.36;129884;1093;113941;-66
2021/06/15 06:02:40;;;;;;;6.40;5.40;;;;;;;23.39;59.37;99425.61;130093;1093;22684;-67
2021/06/15 06:10:29;;;;;;;6.15;5.53;;;;;;;23.30;60.22;99410.20;129933;1092;114262;-69
2021/06/15 06:13:00;;;;;;;7.00;6.30;;;;;;;23.27;60.42;99414.47;130105;1093;22635;-72
2021/06/15 06:15:35;;;;;;;5.63;5.13;;;;;;;23.23;60.02;99417.13;130047;1092;23368;-72
2021/06/15 06:18:07;;;;;;;6.23;5.60;;;;;;;23.23;60.39;99422.69;129994;1093;113736;-70
2021/06/15 06:20:37;;;;;;;10.58;5.15;;;;;;;23.24;60.23;99424.31;130099;1093;22593;-68
2021/06/15 06:23:06;;;;;;;5.70;5.10;;;;;;;23.28;60.29;99416.09;130004;1092;114267;-71
2021/06/15 06:25:35;;;;;;;6.98;5.75;;;;;;;23.34;60.06;99411.95;130090;1092;22667;-71
2021/06/15 06:28:03;;;;;;;9.03;6.40;;;;;;;23.46;59.85;99416.70;129809;1093;22569;-70
2021/06/15 06:30:32;;;;;;;7.00;6.30;;;;;;;23.53;59.96;99426.12;129986;1093;113945;-66
2021/06/15 06:33:01;;;;;;;11.85;5.65;;;;;;;23.55;59.96;99426.59;130060;1093;22552;-66
2021/06/15 06:35:30;;;;;;;6.45;5.33;;;;;;;23.55;59.64;99425.78;129967;1093;113952;-67
2021/06/15 06:37:58;;;;;;;5.93;5.08;;;;;;;23.57;60.00;99431.81;130052;1092;24517;-67
2021/06/15 06:40:27;;;;;;;8.45;6.68;;;;;;;23.56;59.52;99427.40;129900;1093;113885;-66
2021/06/15 06:42:55;;;;;;;13.78;6.55;;;;;;;23.60;60.12;99422.78;130059;1093;22709;-66
2021/06/15 06:45:23;;;;;;;10.23;5.93;;;;;;;23.64;59.89;99425.69;130112;1092;22555;-67
2021/06/15 06:47:53;;;;;;;9.35;6.05;;;;;;;23.66;59.94;99421.38;129920;1093;113965;-67
2021/06/15 06:50:21;;;;;;;11.48;6.93;;;;;;;23.69;60.14;99420.68;130098;1093;22529;-67
2021/06/15 06:52:49;;;;;;;7.98;6.35;;;;;;;23.71;59.74;99425.91;129969;1093;114509;-67
2021/06/15 06:55:21;;;;;;;6.47;5.87;;;;;;;23.71;59.64;99420.34;129825;1093;22695;-66
2021/06/15 06:57:49;;;;;;;6.75;6.15;;;;;;;23.72;60.41;99416.40;125372;1091;22874;-65
2021/06/15 07:00:18;;;;;;;6.80;6.15;;;;;;;23.74;60.38;99419.65;125252;1093;114037;-66
2021/06/15 07:02:49;;;;;;;7.25;6.53;;;;;;;23.76;60.18;99417.33;130055;1093;22724;-66
2021/06/15 07:05:18;;;;;;;10.48;6.78;;;;;;;23.79;59.91;99419.42;129715;1092;113751;-67
2021/06/15 07:07:47;;;;;;;9.68;6.08;;;;;;;23.85;60.41;99416.05;129828;1092;22596;-67
2021/06/15 07:10:15;;;;;;;10.33;6.00;;;;;;;23.92;59.96;99412.69;129770;1093;113870;-67
2021/06/15 07:12:43;;;;;;;14.35;5.60;;;;;;;23.97;59.87;99415.22;129794;1093;23058;-66
2021/06/15 07:15:12;;;;;;;7.70;5.93;;;;;;;23.99;60.49;99412.90;129855;1091;22607;-67
2021/06/15 07:17:41;;;;;;;8.50;6.40;;;;;;;24.03;59.17;99404.67;129708;1092;113750;-67
2021/06/15 07:20:10;;;;;;;10.63;5.58;;;;;;;24.07;58.58;99405.59;129842;1093;23408;-67
2021/06/15 07:22:41;;;;;;;9.50;5.90;;;;;;;24.09;58.74;99408.84;129817;1093;114146;-67
2021/06/15 07:25:10;;;;;;;9.53;6.98;;;;;;;24.12;59.74;99400.58;129872;1093;23328;-67
2021/06/15 07:27:38;;;;;;;9.60;6.25;;;;;;;24.19;59.37;99398.03;130048;1093;22675;-67
2021/06/15 07:30:07;;;;;;;11.55;6.45;;;;;;;24.26;59.30;99398.27;129941;1093;114080;-67
2021/06/15 07:32:35;;;;;;;8.08;5.98;;;;;;;24.34;58.83;99395.70;130076;1093;22548;-67
2021/06/15 07:35:04;;;;;;;15.20;6.13;;;;;;;24.35;58.35;99395.35;129941;1093;113778;-67
2021/06/15 07:37:33;;;;;;;5.93;5.33;;;;;;;24.37;57.99;99393.03;130100;1093;23240;-67
2021/06/15 07:40:01;;;;;;;7.88;5.10;;;;;;;24.43;57.81;99390.79;130056;1093;22587;-67
2021/06/15 07:42:30;;;;;;;7.75;5.68;;;;;;;24.49;58.90;99401.34;129747;1093;114582;-67
2021/06/15 07:44:58;;;;;;;10.30;5.50;;;;;;;24.55;58.69;99399.09;130077;1093;22536;-68
2021/06/15 07:47:26;;;;;;;6.33;5.58;;;;;;;24.58;57.75;99396.42;129939;1093;114126;-68
2021/06/15 07:50:12;;;;;;;7.20;6.03;;;;;;;24.60;57.91;99394.09;130032;1092;22609;-68
2021/06/15 07:52:41;;;;;;;5.80;5.03;;;;;;;24.64;58.22;99397.00;129729;1092;113823;-67
2021/06/15 07:55:10;;;;;;;12.78;5.23;;;;;;;24.68;57.59;99392.31;130039;1093;22715;-67
2021/06/15 07:57:40;;;;;;;6.70;4.33;;;;;;;24.72;56.48;99376.52;130080;1092;22639;-66
2021/06/15 08:00:09;;;;;;;5.33;4.75;;;;;;;24.76;56.73;99385.78;129863;1093;113850;-66
2021/06/15 08:02:44;;;;;;;9.15;5.30;;;;;;;24.84;57.30;99376.45;130137;1092;22689;-67
2021/06/15 08:05:13;;;;;;;9.73;5.58;;;;;;;24.87;57.32;99381.31;129950;1093;113933;-66
2021/06/15 08:07:41;;;;;;;5.80;5.30;;;;;;;24.90;57.04;99377.81;129873;1093;22630;-67
2021/06/15 08:10:10;;;;;;;5.83;5.25;;;;;;;24.91;56.12;99371.08;130066;1093;23068;-67
2021/06/15 08:12:38;;;;;;;6.93;5.68;;;;;;;24.95;56.55;99374.81;129991;1092;113577;-66
2021/06/15 08:15:07;;;;;;;6.73;5.83;;;;;;;24.97;56.16;99378.03;130109;1093;23043;-67
2021/06/15 08:17:36;;;;;;;7.43;6.10;;;;;;;24.95;56.61;99366.45;130002;1093;114225;-67
2021/06/15 08:20:05;;;;;;;6.30;5.65;;;;;;;24.96;56.61;99379.19;130095;1093;22654;-67
2021/06/15 08:22:33;;;;;;;11.15;6.10;;;;;;;24.93;55.87;99371.56;130019;1093;113970;-67
2021/06/15 08:25:01;;;;;;;6.80;6.10;;;;;;;24.90;56.61;99369.45;130110;1092;22553;-67
2021/06/15 08:27:31;;;;;;;6.20;5.60;;;;;;;24.88;56.85;99359.83;130084;1093;22559;-67
2021/06/15 08:30:00;;;;;;;8.18;5.50;;;;;;;24.87;56.91;99361.80;129985;1093;113847;-67
2021/06/15 08:32:28;;;;;;;8.38;5.33;;;;;;;24.90;56.15;99361.09;130066;1093;22706;-67
2021/06/15 08:34:57;;;;;;;6.23;5.43;;;;;;;24.93;56.07;99362.36;130040;1092;114855;-67
2021/06/15 08:40:28;;;;;;;6.85;6.15;;;;;;;24.98;57.19;99348.17;125811;1088;22774;-65
2021/06/15 08:42:57;;;;;;;7.10;5.75;;;;;;;25.04;57.14;99354.30;125211;1093;22814;-66
2021/06/15 08:45:26;;;;;;;16.23;5.80;;;;;;;25.10;55.91;99342.55;130166;1093;23057;-67
2021/06/15 08:47:54;;;;;;;6.58;5.33;;;;;;;25.16;55.73;99349.45;129997;1093;113785;-66
2021/06/15 08:50:25;;;;;;;9.85;6.18;;;;;;;25.21;55.76;99348.39;130121;1093;22545;-67
2021/06/15 08:52:53;;;;;;;11.13;5.18;;;;;;;25.24;55.28;99353.25;129967;1091;113528;-67
2021/06/15 08:55:22;;;;;;;5.90;5.35;;;;;;;25.28;54.54;99342.97;130118;1092;22538;-66
2021/06/15 08:58:08;;;;;;;8.58;5.25;;;;;;;25.32;54.75;99355.84;130039;1093;22587;-68
2021/06/15 09:00:36;;;;;;;5.33;4.68;;;;;;;25.37;54.16;99338.04;130033;1093;113231;-67
2021/06/15 09:03:05;;;;;;;6.38;5.00;;;;;;;25.41;54.17;99332.52;130130;1092;22635;-66
2021/06/15 09:05:33;;;;;;;5.23;4.73;;;;;;;25.43;54.08;99332.98;130015;1093;114675;-67
2021/06/15 09:08:07;;;;;;;6.23;5.43;;;;;;;25.43;54.69;99335.77;130084;1093;22559;-66
2021/06/15 09:10:46;;;;;;;8.28;6.03;;;;;;;25.42;54.94;99332.17;130031;1093;113742;-66
2021/06/15 09:13:33;;;;;;;8.18;5.03;;;;;;;25.43;54.28;99333.79;130062;1092;23570;-66
2021/06/15 09:16:23;;;;;;;9.15;6.15;;;;;;;25.45;54.87;99327.84;130110;1093;22688;-67
2021/06/15 09:18:53;;;;;;;5.88;5.28;;;;;;;25.47;55.15;99334.69;129910;1093;113363;-67
2021/06/15 09:21:31;;;;;;;5.40;4.88;;;;;;;25.48;55.17;99332.71;130087;1093;22523;-67
2021/06/15 09:24:10;;;;;;;8.63;4.78;;;;;;;25.47;53.65;99329.11;129987;1092;116421;-67
2021/06/15 09:27:00;;;;;;;7.43;5.43;;;;;;;25.51;54.73;99323.63;130108;1092;22532;-67
2021/06/15 09:29:41;;;;;;;6.65;4.83;;;;;;;25.57;54.84;99324.95;129982;1093;113872;-67
2021/06/15 09:32:12;;;;;;;7.70;4.30;;;;;;;25.65;53.68;99330.38;130133;1092;22520;-67
2021/06/15 09:34:54;;;;;;;9.05;5.10;;;;;;;25.70;53.64;99321.70;129971;1091;114033;-67
2021/06/15 09:37:49;;;;;;;5.03;4.43;;;;;;;25.78;52.73;99319.09;130092;1092;22664;-67
2021/06/15 09:40:20;;;;;;;5.60;4.35;;;;;;;25.79;51.82;99310.36;130007;1093;22582;-67
2021/06/15 09:43:09;;;;;;;7.68;4.60;;;;;;;25.77;52.12;99311.89;129961;1090;113870;-67
2021/06/15 09:45:45;;;;;;;4.53;4.13;;;;;;;25.70;52.15;99309.73;130099;1093;24369;-67
2021/06/15 09:48:34;;;;;;;5.83;4.23;;;;;;;25.64;52.12;99300.05;129999;1090;113599;-67
2021/06/15 09:51:05;;;;;;;4.30;3.90;;;;;;;25.62;52.36;99292.03;130128;1090;23419;-67
2021/06/15 09:53:36;;;;;;;8.38;4.20;;;;;;;25.65;52.92;99296.09;129988;1091;114015;-67
2021/06/15 09:56:05;;;;;;;5.60;4.35;;;;;;;25.73;53.43;99291.46;130127;1093;22594;-67
2021/06/15 09:58:53;;;;;;;7.20;4.25;;;;;;;25.81;53.93;99288.48;130040;1091;113786;-67
2021/06/15 10:01:34;;;;;;;5.88;4.03;;;;;;;25.90;52.74;99293.84;130134;1090;22544;-67
2021/06/15 10:04:32;;;;;;;6.90;4.08;;;;;;;25.98;52.47;99296.41;130095;1093;23059;-67
2021/06/15 10:07:00;;;;;;;4.55;4.10;;;;;;;26.10;52.68;99298.28;129675;1094;113436;-67
2021/06/15 10:09:32;;;;;;;5.90;4.30;;;;;;;26.18;51.98;99304.80;129742;1094;22558;-66
2021/06/15 10:12:10;;;;;;;14.73;4.50;;;;;;;26.26;50.74;99298.98;129635;1096;113663;-67
2021/06/15 10:14:39;;;;;;;5.80;3.98;;;;;;;26.28;49.92;99291.08;129718;1096;22565;-66
2021/06/15 10:17:07;;;;;;;5.00;3.90;;;;;;;26.26;49.95;99298.98;129636;1096;113685;-67
2021/06/15 10:19:38;;;;;;;5.75;3.83;;;;;;;26.22;49.19;99297.31;129737;1096;22643;-67
2021/06/15 10:22:08;;;;;;;4.18;3.75;;;;;;;26.19;49.12;99292.46;129760;1096;22655;-66
2021/06/15 10:24:36;;;;;;;6.03;4.03;;;;;;;26.14;50.32;99292.74;129645;1095;114079;-66
2021/06/15 10:27:07;;;;;;;3.95;3.38;;;;;;;26.08;50.06;99285.85;125975;1095;22885;-66
2021/06/15 10:29:36;;;;;;;5.25;3.20;;;;;;;26.04;49.50;99297.75;129664;1096;114102;-68
2021/06/15 10:32:12;;;;;;;5.13;3.98;;;;;;;26.05;50.01;99290.99;129730;1096;22525;-67
2021/06/15 10:35:04;;;;;;;4.03;3.63;;;;;;;26.05;50.08;99284.59;129646;1095;113789;-67
2021/06/15 10:37:37;;;;;;;4.80;3.63;;;;;;;26.05;50.30;99279.02;129664;1096;22582;-67
2021/06/15 10:40:14;;;;;;;6.68;3.80;;;;;;;26.03;50.09;99295.31;129713;1095;22551;-67
2021/06/15 10:42:42;;;;;;;6.43;3.70;;;;;;;26.00;49.96;99285.69;129619;1096;113746;-67
2021/06/15 10:45:17;;;;;;;3.88;3.45;;;;;;;26.01;49.46;99278.13;130128;1093;22563;-67
2021/06/15 10:48:04;;;;;;;4.90;3.75;;;;;;;26.04;50.04;99280.99;129997;1093;113075;-67
2021/06/15 10:50:44;;;;;;;6.70;3.78;;;;;;;26.12;50.17;99287.52;130152;1093;23071;-70
2021/06/15 10:53:13;;;;;;;4.63;3.88;;;;;;;26.20;49.23;99266.15;129944;1093;114500;-69
2021/06/15 10:55:45;;;;;;;6.23;3.78;;;;;;;26.27;50.12;99269.88;130086;1093;23352;-68
2021/06/15 10:58:13;;;;;;;4.05;3.65;;;;;;;26.34;50.14;99272.86;130085;1092;22562;-69
2021/06/15 11:00:47;;;;;;;10.18;3.48;;;;;;;26.41;49.60;99272.98;130027;1093;113556;-70
2021/06/15 11:03:15;;;;;;;4.98;3.70;;;;;;;26.44;48.52;99276.22;130108;1091;23197;-70
2021/06/15 11:05:51;;;;;;;5.73;3.63;;;;;;;26.40;49.18;99265.78;129990;1093;114416;-69
2021/06/15 11:08:24;;;;;;;3.98;3.50;;;;;;;26.35;48.54;99268.89;130026;1092;22592;-70
2021/06/15 11:10:56;;;;;;;8.90;3.50;;;;;;;26.30;49.07;99269.18;129982;1093;113899;-70
2021/06/15 11:13:43;;;;;;;4.98;3.43;;;;;;;26.22;48.99;99259.03;130063;1093;22645;-70
2021/06/15 11:16:23;;;;;;;3.48;3.18;;;;;;;26.17;48.42;99255.70;130079;1092;22647;-70
2021/06/15 11:19:13;;;;;;;5.58;3.80;;;;;;;26.15;48.22;99246.89;129894;1092;113924;-70
2021/06/15 11:22:05;;;;;;;4.08;3.68;;;;;;;26.18;48.38;99246.16;130086;1093;22558;-70
2021/06/15 11:24:45;;;;;;;5.10;3.58;;;;;;;26.21;48.56;99228.67;130342;1090;113990;-70
2021/06/15 11:27:24;;;;;;;4.10;3.15;;;;;;;26.27;48.49;99232.77;130479;1089;22948;-70
2021/06/15 11:29:53;;;;;;;4.53;3.50;;;;;;;26.28;48.48;99224.05;130404;1088;114080;-69
2021/06/15 11:32:34;;;;;;;10.40;3.45;;;;;;;26.28;49.04;99228.79;130495;1090;23124;-70
2021/06/15 11:35:03;;;;;;;4.63;3.65;;;;;;;26.25;48.37;99221.98;130411;1090;113944;-69
2021/06/15 11:37:38;;;;;;;3.45;2.90;;;;;;;26.22;47.97;99211.55;130504;1089;22613;-70
2021/06/15 11:40:16;;;;;;;3.13;2.83;;;;;;;26.24;48.47;99217.58;130525;1090;22568;-70
2021/06/15 11:42:56;;;;;;;3.15;2.75;;;;;;;26.27;48.68;99211.22;130396;1088;114209;-70
2021/06/15 11:45:29;;;;;;;3.55;3.23;;;;;;;26.32;48.26;99202.58;130492;1088;22552;-70
2021/06/15 11:48:12;;;;;;;6.18;3.00;;;;;;;26.40;47.35;99192.36;130427;1090;113278;-70
2021/06/15 11:50:44;;;;;;;3.70;2.85;;;;;;;26.50;46.76;99190.93;130544;1089;23218;-70
2021/06/15 11:53:15;;;;;;;4.23;3.23;;;;;;;26.60;46.78;99195.89;130393;1089;114036;-70